sensor_id;sensor_type;location;lat;lon;timestamp;temperature;humidity
6270;DHT22;3168;51.684;6.954;2023-03-11T00:00:05;1.60;1.00
6270;DHT22;3168;51.684;6.954;2023-03-11T00:02:32;1.60;1.00
6270;DHT22;3168;51.684;6.954;2023-03-11T00:04:58;1.50;1.00
6270;DHT22;3168;51.684;6.954;2023-03-11T00:07:23;1.60;1.00
6270;DHT22;3168;51.684;6.954;2023-03-11T00:09:49;1.60;1.00
6270;DHT22;3168;51.684;6.954;2023-03-11T00:12:15;1.40;1.00
6270;DHT22;3168;51.684;6.954;2023-03-11T00:14:41;1.40;1.00
6270;DHT22;3168;51.684;6.954;2023-03-11T00:17:06;1.30;1.00
6270;DHT22;3168;51.684;6.954;2023-03-11T00:19:32;1.40;1.00
6270;DHT22;3168;51.684;6.954;2023-03-11T00:21:58;1.30;1.00
6270;DHT22;3168;51.684;6.954;2023-03-11T00:24:24;1.40;1.00
6270;DHT22;3168;51.684;6.954;2023-03-11T00:26:49;1.40;1.00
6270;DHT22;3168;51.684;6.954;2023-03-11T00:29:15;1.40;1.00
6270;DHT22;3168;51.684;6.954;2023-03-11T00:31:41;1.30;1.00
6270;DHT22;3168;51.684;6.954;2023-03-11T00:34:08;1.20;1.00
6270;DHT22;3168;51.684;6.954;2023-03-11T00:36:34;1.20;1.00
6270;DHT22;3168;51.684;6.954;2023-03-11T00:39:00;1.20;2.80
6270;DHT22;3168;51.684;6.954;2023-03-11T00:41:25;1.20;2.60
6270;DHT22;3168;51.684;6.954;2023-03-11T00:44:01;1.20;4.20
6270;DHT22;3168;51.684;6.954;2023-03-11T00:46:27;1.20;4.20
6270;DHT22;3168;51.684;6.954;2023-03-11T00:48:53;1.20;4.20
6270;DHT22;3168;51.684;6.954;2023-03-11T00:51:19;1.20;4.20
6270;DHT22;3168;51.684;6.954;2023-03-11T00:53:44;1.20;4.80
6270;DHT22;3168;51.684;6.954;2023-03-11T00:56:11;1.10;4.10
6270;DHT22;3168;51.684;6.954;2023-03-11T00:58:36;1.20;4.10
6270;DHT22;3168;51.684;6.954;2023-03-11T01:01:13;1.10;4.10
6270;DHT22;3168;51.684;6.954;2023-03-11T01:03:38;1.10;4.20
6270;DHT22;3168;51.684;6.954;2023-03-11T01:06:05;1.10;5.60
6270;DHT22;3168;51.684;6.954;2023-03-11T01:08:30;1.10;4.30
6270;DHT22;3168;51.684;6.954;2023-03-11T01:10:56;1.10;6.10
6270;DHT22;3168;51.684;6.954;2023-03-11T01:13:21;1.10;6.60
6270;DHT22;3168;51.684;6.954;2023-03-11T01:15:47;1.10;5.60
6270;DHT22;3168;51.684;6.954;2023-03-11T01:18:13;1.10;4.30
6270;DHT22;3168;51.684;6.954;2023-03-11T01:20:39;1.10;6.20
6270;DHT22;3168;51.684;6.954;2023-03-11T01:23:05;1.20;7.60
6270;DHT22;3168;51.684;6.954;2023-03-11T01:25:30;1.20;6.80
6270;DHT22;3168;51.684;6.954;2023-03-11T01:27:57;1.10;4.20
6270;DHT22;3168;51.684;6.954;2023-03-11T01:30:23;1.20;4.20
6270;DHT22;3168;51.684;6.954;2023-03-11T01:32:48;1.20;4.20
6270;DHT22;3168;51.684;6.954;2023-03-11T01:35:15;1.20;4.20
6270;DHT22;3168;51.684;6.954;2023-03-11T01:37:40;1.10;4.20
6270;DHT22;3168;51.684;6.954;2023-03-11T01:40:07;1.10;4.20
6270;DHT22;3168;51.684;6.954;2023-03-11T01:42:32;1.10;4.20
6270;DHT22;3168;51.684;6.954;2023-03-11T01:44:58;1.10;4.50
6270;DHT22;3168;51.684;6.954;2023-03-11T01:47:32;1.40;12.50
6270;DHT22;3168;51.684;6.954;2023-03-11T01:49:56;1.30;1.30
6270;DHT22;3168;51.684;6.954;2023-03-11T01:52:22;1.30;1.00
6270;DHT22;3168;51.684;6.954;2023-03-11T01:54:48;1.30;1.00
6270;DHT22;3168;51.684;6.954;2023-03-11T01:57:13;1.20;1.00
6270;DHT22;3168;51.684;6.954;2023-03-11T01:59:41;1.10;1.00
6270;DHT22;3168;51.684;6.954;2023-03-11T02:02:17;1.10;1.00
6270;DHT22;3168;51.684;6.954;2023-03-11T02:04:44;1.10;1.00
6270;DHT22;3168;51.684;6.954;2023-03-11T02:07:10;1.00;1.00
6270;DHT22;3168;51.684;6.954;2023-03-11T02:09:36;1.00;1.00
6270;DHT22;3168;51.684;6.954;2023-03-11T02:12:02;1.00;1.00
6270;DHT22;3168;51.684;6.954;2023-03-11T02:14:27;0.90;1.00
6270;DHT22;3168;51.684;6.954;2023-03-11T02:16:53;0.80;1.00
6270;DHT22;3168;51.684;6.954;2023-03-11T02:19:26;0.80;1.00
6270;DHT22;3168;51.684;6.954;2023-03-11T02:21:49;0.70;1.00
6270;DHT22;3168;51.684;6.954;2023-03-11T02:24:30;0.70;1.10
6270;DHT22;3168;51.684;6.954;2023-03-11T02:27:00;0.70;2.90
6270;DHT22;3168;51.684;6.954;2023-03-11T02:29:27;0.60;6.00
6270;DHT22;3168;51.684;6.954;2023-03-11T02:31:52;0.60;5.70
6270;DHT22;3168;51.684;6.954;2023-03-11T02:34:21;0.60;7.00
6270;DHT22;3168;51.684;6.954;2023-03-11T02:36:46;0.60;7.80
6270;DHT22;3168;51.684;6.954;2023-03-11T02:39:12;0.60;9.70
6270;DHT22;3168;51.684;6.954;2023-03-11T02:41:39;0.60;11.60
6270;DHT22;3168;51.684;6.954;2023-03-11T02:44:04;0.70;12.70
6270;DHT22;3168;51.684;6.954;2023-03-11T02:46:29;0.70;14.30
6270;DHT22;3168;51.684;6.954;2023-03-11T02:48:56;0.60;16.20
6270;DHT22;3168;51.684;6.954;2023-03-11T02:51:22;0.60;16.20
6270;DHT22;3168;51.684;6.954;2023-03-11T02:53:48;0.70;16.30
6270;DHT22;3168;51.684;6.954;2023-03-11T02:56:13;0.70;17.40
6270;DHT22;3168;51.684;6.954;2023-03-11T02:58:39;0.70;18.20
6270;DHT22;3168;51.684;6.954;2023-03-11T03:01:05;0.80;18.90
6270;DHT22;3168;51.684;6.954;2023-03-11T03:03:31;0.70;17.20
6270;DHT22;3168;51.684;6.954;2023-03-11T03:05:57;0.70;17.50
6270;DHT22;3168;51.684;6.954;2023-03-11T03:08:22;0.70;16.90
6270;DHT22;3168;51.684;6.954;2023-03-11T03:10:48;0.70;16.70
6270;DHT22;3168;51.684;6.954;2023-03-11T03:13:14;0.70;16.60
6270;DHT22;3168;51.684;6.954;2023-03-11T03:15:40;0.80;18.20
6270;DHT22;3168;51.684;6.954;2023-03-11T03:18:06;0.80;15.60
6270;DHT22;3168;51.684;6.954;2023-03-11T03:20:31;0.80;13.50
6270;DHT22;3168;51.684;6.954;2023-03-11T03:22:57;0.80;12.30
6270;DHT22;3168;51.684;6.954;2023-03-11T03:25:23;0.80;9.50
6270;DHT22;3168;51.684;6.954;2023-03-11T03:27:49;0.80;7.00
6270;DHT22;3168;51.684;6.954;2023-03-11T03:30:15;0.70;3.80
6270;DHT22;3168;51.684;6.954;2023-03-11T03:32:41;0.70;1.00
6270;DHT22;3168;51.684;6.954;2023-03-11T03:35:07;0.70;1.00
6270;DHT22;3168;51.684;6.954;2023-03-11T03:37:34;0.70;1.00
6270;DHT22;3168;51.684;6.954;2023-03-11T03:39:58;0.70;1.00
6270;DHT22;3168;51.684;6.954;2023-03-11T03:42:24;0.80;1.00
6270;DHT22;3168;51.684;6.954;2023-03-11T03:44:50;0.80;1.00
6270;DHT22;3168;51.684;6.954;2023-03-11T03:47:16;0.80;1.00
6270;DHT22;3168;51.684;6.954;2023-03-11T03:49:42;0.70;1.00
6270;DHT22;3168;51.684;6.954;2023-03-11T03:52:08;0.80;1.00
6270;DHT22;3168;51.684;6.954;2023-03-11T03:54:33;0.70;1.00
6270;DHT22;3168;51.684;6.954;2023-03-11T03:56:59;0.80;1.00
6270;DHT22;3168;51.684;6.954;2023-03-11T03:59:25;0.80;1.00
6270;DHT22;3168;51.684;6.954;2023-03-11T04:01:51;0.80;1.00
6270;DHT22;3168;51.684;6.954;2023-03-11T04:04:17;0.80;1.00
6270;DHT22;3168;51.684;6.954;2023-03-11T04:06:42;0.80;1.00
6270;DHT22;3168;51.684;6.954;2023-03-11T04:09:08;0.80;1.00
6270;DHT22;3168;51.684;6.954;2023-03-11T04:11:34;0.80;1.00
6270;DHT22;3168;51.684;6.954;2023-03-11T04:14:00;0.70;1.00
6270;DHT22;3168;51.684;6.954;2023-03-11T04:16:26;0.60;1.00
6270;DHT22;3168;51.684;6.954;2023-03-11T04:18:51;0.70;1.00
6270;DHT22;3168;51.684;6.954;2023-03-11T04:21:17;0.80;1.00
6270;DHT22;3168;51.684;6.954;2023-03-11T04:23:43;0.80;1.00
6270;DHT22;3168;51.684;6.954;2023-03-11T04:26:09;0.80;1.00
6270;DHT22;3168;51.684;6.954;2023-03-11T04:28:35;0.70;1.00
6270;DHT22;3168;51.684;6.954;2023-03-11T04:31:00;0.70;1.00
6270;DHT22;3168;51.684;6.954;2023-03-11T04:33:27;0.70;1.00
6270;DHT22;3168;51.684;6.954;2023-03-11T04:35:53;0.60;1.00
6270;DHT22;3168;51.684;6.954;2023-03-11T04:38:19;0.60;1.00
6270;DHT22;3168;51.684;6.954;2023-03-11T04:40:45;0.60;1.00
6270;DHT22;3168;51.684;6.954;2023-03-11T04:43:11;0.60;1.00
6270;DHT22;3168;51.684;6.954;2023-03-11T04:45:38;0.60;1.00
6270;DHT22;3168;51.684;6.954;2023-03-11T04:48:04;0.60;1.00
6270;DHT22;3168;51.684;6.954;2023-03-11T04:50:29;0.50;1.00
6270;DHT22;3168;51.684;6.954;2023-03-11T04:52:55;0.60;1.00
6270;DHT22;3168;51.684;6.954;2023-03-11T04:55:21;0.60;1.00
6270;DHT22;3168;51.684;6.954;2023-03-11T04:57:47;0.50;1.00
6270;DHT22;3168;51.684;6.954;2023-03-11T05:00:13;0.50;1.00
6270;DHT22;3168;51.684;6.954;2023-03-11T05:02:40;0.50;1.00
6270;DHT22;3168;51.684;6.954;2023-03-11T05:05:07;0.50;1.00
6270;DHT22;3168;51.684;6.954;2023-03-11T05:07:32;0.50;1.00
6270;DHT22;3168;51.684;6.954;2023-03-11T05:09:58;0.50;1.00
6270;DHT22;3168;51.684;6.954;2023-03-11T05:12:24;0.50;1.00
6270;DHT22;3168;51.684;6.954;2023-03-11T05:14:49;0.60;1.00
6270;DHT22;3168;51.684;6.954;2023-03-11T05:17:15;0.60;1.00
6270;DHT22;3168;51.684;6.954;2023-03-11T05:19:41;0.70;1.00
6270;DHT22;3168;51.684;6.954;2023-03-11T05:22:07;0.80;1.00
6270;DHT22;3168;51.684;6.954;2023-03-11T05:24:33;0.70;1.00
6270;DHT22;3168;51.684;6.954;2023-03-11T05:26:59;0.70;1.00
6270;DHT22;3168;51.684;6.954;2023-03-11T05:29:25;0.70;1.00
6270;DHT22;3168;51.684;6.954;2023-03-11T05:31:50;0.70;1.00
6270;DHT22;3168;51.684;6.954;2023-03-11T05:34:16;0.70;1.00
6270;DHT22;3168;51.684;6.954;2023-03-11T05:36:42;0.70;1.00
6270;DHT22;3168;51.684;6.954;2023-03-11T05:39:08;0.60;1.00
6270;DHT22;3168;51.684;6.954;2023-03-11T05:41:34;0.60;1.00
6270;DHT22;3168;51.684;6.954;2023-03-11T05:44:00;0.60;1.00
6270;DHT22;3168;51.684;6.954;2023-03-11T05:46:25;0.60;1.00
6270;DHT22;3168;51.684;6.954;2023-03-11T05:48:51;0.50;1.00
6270;DHT22;3168;51.684;6.954;2023-03-11T05:51:17;0.50;1.00
6270;DHT22;3168;51.684;6.954;2023-03-11T05:53:44;0.50;1.00
6270;DHT22;3168;51.684;6.954;2023-03-11T05:56:10;0.40;1.00
6270;DHT22;3168;51.684;6.954;2023-03-11T05:58:36;0.40;1.00
6270;DHT22;3168;51.684;6.954;2023-03-11T06:01:06;0.40;1.00
6270;DHT22;3168;51.684;6.954;2023-03-11T06:03:28;0.40;1.00
6270;DHT22;3168;51.684;6.954;2023-03-11T06:05:54;0.40;1.00
6270;DHT22;3168;51.684;6.954;2023-03-11T06:08:19;0.40;1.00
6270;DHT22;3168;51.684;6.954;2023-03-11T06:10:45;0.40;1.00
6270;DHT22;3168;51.684;6.954;2023-03-11T06:13:11;0.40;1.00
6270;DHT22;3168;51.684;6.954;2023-03-11T06:15:37;0.30;1.00
6270;DHT22;3168;51.684;6.954;2023-03-11T06:18:03;0.30;1.00
6270;DHT22;3168;51.684;6.954;2023-03-11T06:20:29;0.30;1.00
6270;DHT22;3168;51.684;6.954;2023-03-11T06:22:55;0.20;1.00
6270;DHT22;3168;51.684;6.954;2023-03-11T06:25:21;0.20;1.00
6270;DHT22;3168;51.684;6.954;2023-03-11T06:27:48;0.10;1.00
6270;DHT22;3168;51.684;6.954;2023-03-11T06:30:14;0.10;1.00
6270;DHT22;3168;51.684;6.954;2023-03-11T06:32:41;0.10;1.00
6270;DHT22;3168;51.684;6.954;2023-03-11T06:35:06;0.20;1.00
6270;DHT22;3168;51.684;6.954;2023-03-11T06:37:34;0.20;1.00
6270;DHT22;3168;51.684;6.954;2023-03-11T06:39:58;0.20;1.00
6270;DHT22;3168;51.684;6.954;2023-03-11T06:42:23;0.20;1.00
6270;DHT22;3168;51.684;6.954;2023-03-11T06:44:49;0.20;1.00
6270;DHT22;3168;51.684;6.954;2023-03-11T06:47:15;0.20;1.00
6270;DHT22;3168;51.684;6.954;2023-03-11T06:49:41;0.20;1.00
6270;DHT22;3168;51.684;6.954;2023-03-11T06:52:07;0.30;1.00
6270;DHT22;3168;51.684;6.954;2023-03-11T06:54:33;0.30;1.00
6270;DHT22;3168;51.684;6.954;2023-03-11T06:56:58;0.30;1.00
6270;DHT22;3168;51.684;6.954;2023-03-11T06:59:24;0.30;1.00
6270;DHT22;3168;51.684;6.954;2023-03-11T07:01:50;0.40;1.00
6270;DHT22;3168;51.684;6.954;2023-03-11T07:04:16;0.30;1.00
6270;DHT22;3168;51.684;6.954;2023-03-11T07:06:42;0.40;1.00
6270;DHT22;3168;51.684;6.954;2023-03-11T07:09:08;0.30;1.00
6270;DHT22;3168;51.684;6.954;2023-03-11T07:11:33;0.30;1.00
6270;DHT22;3168;51.684;6.954;2023-03-11T07:13:59;0.40;1.00
6270;DHT22;3168;51.684;6.954;2023-03-11T07:16:26;0.40;1.00
6270;DHT22;3168;51.684;6.954;2023-03-11T07:18:51;0.40;1.00
6270;DHT22;3168;51.684;6.954;2023-03-11T07:21:18;0.50;1.00
6270;DHT22;3168;51.684;6.954;2023-03-11T07:23:43;0.40;1.00
6270;DHT22;3168;51.684;6.954;2023-03-11T07:26:09;0.50;1.00
6270;DHT22;3168;51.684;6.954;2023-03-11T07:28:35;0.60;1.00
6270;DHT22;3168;51.684;6.954;2023-03-11T07:31:05;0.60;1.00
6270;DHT22;3168;51.684;6.954;2023-03-11T07:33:26;0.60;1.00
6270;DHT22;3168;51.684;6.954;2023-03-11T07:35:52;0.70;1.00
6270;DHT22;3168;51.684;6.954;2023-03-11T07:38:18;0.70;1.00
6270;DHT22;3168;51.684;6.954;2023-03-11T07:40:44;0.80;1.00
6270;DHT22;3168;51.684;6.954;2023-03-11T07:43:10;0.90;1.00
6270;DHT22;3168;51.684;6.954;2023-03-11T07:45:36;0.90;1.00
6270;DHT22;3168;51.684;6.954;2023-03-11T07:48:02;0.90;1.00
6270;DHT22;3168;51.684;6.954;2023-03-11T07:50:28;1.00;1.00
6270;DHT22;3168;51.684;6.954;2023-03-11T07:52:54;0.90;1.00
6270;DHT22;3168;51.684;6.954;2023-03-11T07:55:20;1.00;1.00
6270;DHT22;3168;51.684;6.954;2023-03-11T07:57:46;1.00;1.00
6270;DHT22;3168;51.684;6.954;2023-03-11T08:00:12;1.10;1.00
6270;DHT22;3168;51.684;6.954;2023-03-11T08:02:39;1.30;1.00
6270;DHT22;3168;51.684;6.954;2023-03-11T08:05:05;1.30;1.00
6270;DHT22;3168;51.684;6.954;2023-03-11T08:07:31;1.30;1.00
6270;DHT22;3168;51.684;6.954;2023-03-11T08:09:57;1.40;1.00
6270;DHT22;3168;51.684;6.954;2023-03-11T08:12:24;1.50;1.00
6270;DHT22;3168;51.684;6.954;2023-03-11T08:14:49;1.50;1.00
6270;DHT22;3168;51.684;6.954;2023-03-11T08:17:16;1.60;1.00
6270;DHT22;3168;51.684;6.954;2023-03-11T08:19:41;1.60;1.00
6270;DHT22;3168;51.684;6.954;2023-03-11T08:22:07;1.70;1.00
6270;DHT22;3168;51.684;6.954;2023-03-11T08:24:33;1.70;1.00
6270;DHT22;3168;51.684;6.954;2023-03-11T08:26:59;1.80;1.00
6270;DHT22;3168;51.684;6.954;2023-03-11T08:29:24;2.00;1.00
6270;DHT22;3168;51.684;6.954;2023-03-11T08:31:51;2.10;1.00
6270;DHT22;3168;51.684;6.954;2023-03-11T08:34:17;2.10;1.00
6270;DHT22;3168;51.684;6.954;2023-03-11T08:36:43;2.30;1.00
6270;DHT22;3168;51.684;6.954;2023-03-11T08:39:08;2.30;1.00
6270;DHT22;3168;51.684;6.954;2023-03-11T08:41:34;2.50;1.00
6270;DHT22;3168;51.684;6.954;2023-03-11T08:44:00;2.70;1.00
6270;DHT22;3168;51.684;6.954;2023-03-11T08:46:29;2.50;1.00
6270;DHT22;3168;51.684;6.954;2023-03-11T08:48:54;2.40;1.00
6270;DHT22;3168;51.684;6.954;2023-03-11T08:51:20;2.50;1.00
6270;DHT22;3168;51.684;6.954;2023-03-11T08:53:45;2.80;1.00
6270;DHT22;3168;51.684;6.954;2023-03-11T08:56:11;2.70;1.00
6270;DHT22;3168;51.684;6.954;2023-03-11T08:58:37;2.90;1.00
6270;DHT22;3168;51.684;6.954;2023-03-11T09:01:04;2.80;1.00
6270;DHT22;3168;51.684;6.954;2023-03-11T09:03:30;2.70;1.00
6270;DHT22;3168;51.684;6.954;2023-03-11T09:05:56;2.80;1.00
6270;DHT22;3168;51.684;6.954;2023-03-11T09:08:21;2.80;1.00
6270;DHT22;3168;51.684;6.954;2023-03-11T09:10:47;2.80;1.00
6270;DHT22;3168;51.684;6.954;2023-03-11T09:13:13;2.90;1.00
6270;DHT22;3168;51.684;6.954;2023-03-11T09:15:38;3.10;1.00
6270;DHT22;3168;51.684;6.954;2023-03-11T09:18:04;3.00;1.00
6270;DHT22;3168;51.684;6.954;2023-03-11T09:20:30;3.10;1.00
6270;DHT22;3168;51.684;6.954;2023-03-11T09:22:56;3.10;1.00
6270;DHT22;3168;51.684;6.954;2023-03-11T09:25:22;3.30;1.00
6270;DHT22;3168;51.684;6.954;2023-03-11T09:27:47;3.40;1.00
6270;DHT22;3168;51.684;6.954;2023-03-11T09:30:13;3.50;1.00
6270;DHT22;3168;51.684;6.954;2023-03-11T09:32:39;3.60;1.00
6270;DHT22;3168;51.684;6.954;2023-03-11T09:35:05;3.50;1.00
6270;DHT22;3168;51.684;6.954;2023-03-11T09:37:31;3.60;1.00
6270;DHT22;3168;51.684;6.954;2023-03-11T09:39:57;3.70;1.00
6270;DHT22;3168;51.684;6.954;2023-03-11T09:42:42;3.80;1.00
6270;DHT22;3168;51.684;6.954;2023-03-11T09:50:38;3.80;1.00
6270;DHT22;3168;51.684;6.954;2023-03-11T09:53:20;4.00;1.00
6270;DHT22;3168;51.684;6.954;2023-03-11T09:55:46;4.00;1.00
6270;DHT22;3168;51.684;6.954;2023-03-11T10:00:43;4.00;1.00
6270;DHT22;3168;51.684;6.954;2023-03-11T10:03:16;4.00;1.00
6270;DHT22;3168;51.684;6.954;2023-03-11T10:05:38;4.30;1.00
6270;DHT22;3168;51.684;6.954;2023-03-11T10:08:32;4.40;1.00
6270;DHT22;3168;51.684;6.954;2023-03-11T10:10:59;4.60;1.00
6270;DHT22;3168;51.684;6.954;2023-03-11T10:13:26;4.70;1.00
6270;DHT22;3168;51.684;6.954;2023-03-11T10:15:52;4.90;1.00
6270;DHT22;3168;51.684;6.954;2023-03-11T10:20:59;4.50;1.00
6270;DHT22;3168;51.684;6.954;2023-03-11T10:26:35;4.10;1.00
6270;DHT22;3168;51.684;6.954;2023-03-11T10:29:09;4.30;1.00
6270;DHT22;3168;51.684;6.954;2023-03-11T10:31:34;4.60;1.00
6270;DHT22;3168;51.684;6.954;2023-03-11T10:34:01;5.10;1.00
6270;DHT22;3168;51.684;6.954;2023-03-11T10:36:27;5.20;1.00
6270;DHT22;3168;51.684;6.954;2023-03-11T10:38:51;5.00;1.00
6270;DHT22;3168;51.684;6.954;2023-03-11T10:41:26;5.00;1.00
6270;DHT22;3168;51.684;6.954;2023-03-11T10:43:59;4.80;1.00
6270;DHT22;3168;51.684;6.954;2023-03-11T10:46:26;4.70;1.00
6270;DHT22;3168;51.684;6.954;2023-03-11T10:48:51;4.80;1.00
6270;DHT22;3168;51.684;6.954;2023-03-11T10:51:17;4.80;1.00
6270;DHT22;3168;51.684;6.954;2023-03-11T10:53:46;4.90;1.00
6270;DHT22;3168;51.684;6.954;2023-03-11T10:56:12;4.90;1.00
6270;DHT22;3168;51.684;6.954;2023-03-11T10:58:35;4.90;1.00
6270;DHT22;3168;51.684;6.954;2023-03-11T11:01:04;5.00;1.00
6270;DHT22;3168;51.684;6.954;2023-03-11T11:03:28;5.50;1.00
6270;DHT22;3168;51.684;6.954;2023-03-11T11:05:59;5.60;1.00
6270;DHT22;3168;51.684;6.954;2023-03-11T11:08:24;4.90;1.00
6270;DHT22;3168;51.684;6.954;2023-03-11T11:10:52;4.90;1.00
6270;DHT22;3168;51.684;6.954;2023-03-11T11:13:19;5.20;1.00
6270;DHT22;3168;51.684;6.954;2023-03-11T11:15:55;5.50;1.00
6270;DHT22;3168;51.684;6.954;2023-03-11T11:18:22;5.30;1.00
6270;DHT22;3168;51.684;6.954;2023-03-11T11:20:52;5.40;1.00
6270;DHT22;3168;51.684;6.954;2023-03-11T11:23:24;5.20;1.00
6270;DHT22;3168;51.684;6.954;2023-03-11T11:25:54;5.20;1.00
6270;DHT22;3168;51.684;6.954;2023-03-11T11:28:16;5.40;1.00
6270;DHT22;3168;51.684;6.954;2023-03-11T11:30:51;5.20;1.00
6270;DHT22;3168;51.684;6.954;2023-03-11T11:33:21;5.10;1.00
6270;DHT22;3168;51.684;6.954;2023-03-11T11:35:48;5.30;1.00
6270;DHT22;3168;51.684;6.954;2023-03-11T11:38:12;5.50;1.00
6270;DHT22;3168;51.684;6.954;2023-03-11T11:40:39;5.60;1.00
6270;DHT22;3168;51.684;6.954;2023-03-11T11:43:11;5.60;1.00
6270;DHT22;3168;51.684;6.954;2023-03-11T11:45:39;5.80;1.00
6270;DHT22;3168;51.684;6.954;2023-03-11T11:50:43;5.80;1.00
6270;DHT22;3168;51.684;6.954;2023-03-11T11:53:22;6.10;1.00
6270;DHT22;3168;51.684;6.954;2023-03-11T11:55:47;6.20;1.00
6270;DHT22;3168;51.684;6.954;2023-03-11T11:58:11;6.00;1.00
6270;DHT22;3168;51.684;6.954;2023-03-11T12:00:44;6.00;1.00
6270;DHT22;3168;51.684;6.954;2023-03-11T12:03:22;6.00;1.00
6270;DHT22;3168;51.684;6.954;2023-03-11T12:06:05;5.70;1.00
6270;DHT22;3168;51.684;6.954;2023-03-11T12:08:37;6.00;1.00
6270;DHT22;3168;51.684;6.954;2023-03-11T12:11:05;6.10;1.00
6270;DHT22;3168;51.684;6.954;2023-03-11T12:13:52;5.90;1.00
6270;DHT22;3168;51.684;6.954;2023-03-11T12:16:22;6.00;1.00
6270;DHT22;3168;51.684;6.954;2023-03-11T12:19:20;6.10;1.00
6270;DHT22;3168;51.684;6.954;2023-03-11T12:21:55;5.80;1.00
6270;DHT22;3168;51.684;6.954;2023-03-11T12:25:09;5.90;1.00
6270;DHT22;3168;51.684;6.954;2023-03-11T12:27:35;6.00;1.00
6270;DHT22;3168;51.684;6.954;2023-03-11T12:30:04;6.00;1.00
6270;DHT22;3168;51.684;6.954;2023-03-11T12:32:33;6.10;1.00
6270;DHT22;3168;51.684;6.954;2023-03-11T12:38:15;6.70;1.00
6270;DHT22;3168;51.684;6.954;2023-03-11T12:40:45;6.80;1.00
6270;DHT22;3168;51.684;6.954;2023-03-11T12:43:22;6.40;1.00
6270;DHT22;3168;51.684;6.954;2023-03-11T12:45:49;6.40;1.00
6270;DHT22;3168;51.684;6.954;2023-03-11T12:48:31;6.30;1.00
6270;DHT22;3168;51.684;6.954;2023-03-11T12:50:50;6.00;1.00
6270;DHT22;3168;51.684;6.954;2023-03-11T12:53:16;5.90;1.00
6270;DHT22;3168;51.684;6.954;2023-03-11T12:55:52;6.00;1.00
6270;DHT22;3168;51.684;6.954;2023-03-11T12:58:17;5.90;1.00
6270;DHT22;3168;51.684;6.954;2023-03-11T13:03:33;6.30;1.00
6270;DHT22;3168;51.684;6.954;2023-03-11T13:06:37;6.40;1.00
6270;DHT22;3168;51.684;6.954;2023-03-11T13:08:44;6.10;1.00
6270;DHT22;3168;51.684;6.954;2023-03-11T13:13:46;6.10;1.00
6270;DHT22;3168;51.684;6.954;2023-03-11T13:16:35;6.00;1.00
6270;DHT22;3168;51.684;6.954;2023-03-11T13:19:27;6.20;1.00
6270;DHT22;3168;51.684;6.954;2023-03-11T13:21:42;6.30;1.00
6270;DHT22;3168;51.684;6.954;2023-03-11T13:27:02;6.00;1.00
6270;DHT22;3168;51.684;6.954;2023-03-11T13:32:59;5.90;1.00
6270;DHT22;3168;51.684;6.954;2023-03-11T13:35:47;5.80;1.00
6270;DHT22;3168;51.684;6.954;2023-03-11T13:40:45;5.90;1.00
6270;DHT22;3168;51.684;6.954;2023-03-11T13:43:25;6.00;1.00
6270;DHT22;3168;51.684;6.954;2023-03-11T13:45:55;6.00;1.00
6270;DHT22;3168;51.684;6.954;2023-03-11T13:48:19;6.20;1.00
6270;DHT22;3168;51.684;6.954;2023-03-11T13:50:46;6.20;1.00
6270;DHT22;3168;51.684;6.954;2023-03-11T13:53:15;6.50;1.00
6270;DHT22;3168;51.684;6.954;2023-03-11T13:55:41;6.50;1.00
6270;DHT22;3168;51.684;6.954;2023-03-11T13:58:13;6.40;1.00
6270;DHT22;3168;51.684;6.954;2023-03-11T14:00:38;6.40;1.00
6270;DHT22;3168;51.684;6.954;2023-03-11T14:03:08;6.50;1.00
6270;DHT22;3168;51.684;6.954;2023-03-11T14:05:31;6.70;1.00
6270;DHT22;3168;51.684;6.954;2023-03-11T14:10:34;6.80;1.00
6270;DHT22;3168;51.684;6.954;2023-03-11T14:13:11;6.80;1.00
6270;DHT22;3168;51.684;6.954;2023-03-11T14:15:37;6.90;1.00
6270;DHT22;3168;51.684;6.954;2023-03-11T14:18:17;6.70;1.00
6270;DHT22;3168;51.684;6.954;2023-03-11T14:20:23;7.10;1.00
6270;DHT22;3168;51.684;6.954;2023-03-11T14:22:50;7.20;1.00
6270;DHT22;3168;51.684;6.954;2023-03-11T14:25:19;7.10;1.00
6270;DHT22;3168;51.684;6.954;2023-03-11T14:27:48;7.00;1.00
6270;DHT22;3168;51.684;6.954;2023-03-11T14:30:17;6.80;1.00
6270;DHT22;3168;51.684;6.954;2023-03-11T14:32:37;7.00;1.00
6270;DHT22;3168;51.684;6.954;2023-03-11T14:35:17;7.20;1.00
6270;DHT22;3168;51.684;6.954;2023-03-11T14:37:35;6.80;1.00
6270;DHT22;3168;51.684;6.954;2023-03-11T14:39:59;6.70;1.00
6270;DHT22;3168;51.684;6.954;2023-03-11T14:42:27;6.70;1.00
6270;DHT22;3168;51.684;6.954;2023-03-11T14:47:43;6.50;1.00
6270;DHT22;3168;51.684;6.954;2023-03-11T14:50:20;6.50;1.00
6270;DHT22;3168;51.684;6.954;2023-03-11T14:52:46;6.50;1.00
6270;DHT22;3168;51.684;6.954;2023-03-11T14:55:12;6.60;1.00
6270;DHT22;3168;51.684;6.954;2023-03-11T14:57:38;6.60;1.00
6270;DHT22;3168;51.684;6.954;2023-03-11T15:00:03;6.70;1.00
6270;DHT22;3168;51.684;6.954;2023-03-11T15:02:36;6.50;1.00
6270;DHT22;3168;51.684;6.954;2023-03-11T15:05:00;6.60;1.00
6270;DHT22;3168;51.684;6.954;2023-03-11T15:07:25;6.80;1.00
6270;DHT22;3168;51.684;6.954;2023-03-11T15:09:51;7.10;1.00
6270;DHT22;3168;51.684;6.954;2023-03-11T15:12:33;7.30;1.00
6270;DHT22;3168;51.684;6.954;2023-03-11T15:14:58;6.90;1.00
6270;DHT22;3168;51.684;6.954;2023-03-11T15:17:25;6.60;1.00
6270;DHT22;3168;51.684;6.954;2023-03-11T15:19:50;6.60;1.00
6270;DHT22;3168;51.684;6.954;2023-03-11T15:22:24;6.60;1.00
6270;DHT22;3168;51.684;6.954;2023-03-11T15:24:50;6.50;1.00
6270;DHT22;3168;51.684;6.954;2023-03-11T15:27:29;6.50;1.00
6270;DHT22;3168;51.684;6.954;2023-03-11T15:29:54;6.50;1.00
6270;DHT22;3168;51.684;6.954;2023-03-11T15:35:16;6.30;1.00
6270;DHT22;3168;51.684;6.954;2023-03-11T15:37:41;6.50;1.00
6270;DHT22;3168;51.684;6.954;2023-03-11T15:40:27;6.50;1.00
6270;DHT22;3168;51.684;6.954;2023-03-11T15:45:38;6.10;1.00
6270;DHT22;3168;51.684;6.954;2023-03-11T15:48:04;6.10;1.00
6270;DHT22;3168;51.684;6.954;2023-03-11T15:50:30;6.30;1.00
6270;DHT22;3168;51.684;6.954;2023-03-11T15:52:57;6.70;1.00
6270;DHT22;3168;51.684;6.954;2023-03-11T15:55:23;6.70;1.00
6270;DHT22;3168;51.684;6.954;2023-03-11T15:57:48;7.30;1.00
6270;DHT22;3168;51.684;6.954;2023-03-11T16:00:17;7.40;1.00
6270;DHT22;3168;51.684;6.954;2023-03-11T16:02:41;7.30;1.00
6270;DHT22;3168;51.684;6.954;2023-03-11T16:05:12;7.00;1.00
6270;DHT22;3168;51.684;6.954;2023-03-11T16:07:37;6.70;1.00
6270;DHT22;3168;51.684;6.954;2023-03-11T16:10:04;6.50;1.00
6270;DHT22;3168;51.684;6.954;2023-03-11T16:12:30;6.60;1.00
6270;DHT22;3168;51.684;6.954;2023-03-11T16:14:56;6.60;1.00
6270;DHT22;3168;51.684;6.954;2023-03-11T16:17:22;6.30;1.00
6270;DHT22;3168;51.684;6.954;2023-03-11T16:19:48;6.30;1.00
6270;DHT22;3168;51.684;6.954;2023-03-11T16:22:16;6.20;1.00
6270;DHT22;3168;51.684;6.954;2023-03-11T16:24:40;6.30;1.00
6270;DHT22;3168;51.684;6.954;2023-03-11T16:27:07;6.30;1.00
6270;DHT22;3168;51.684;6.954;2023-03-11T16:29:32;6.30;1.00
6270;DHT22;3168;51.684;6.954;2023-03-11T16:31:58;6.20;1.00
6270;DHT22;3168;51.684;6.954;2023-03-11T16:34:24;6.10;1.00
6270;DHT22;3168;51.684;6.954;2023-03-11T16:36:50;6.00;1.00
6270;DHT22;3168;51.684;6.954;2023-03-11T16:39:16;5.80;1.00
6270;DHT22;3168;51.684;6.954;2023-03-11T16:41:43;5.80;1.00
6270;DHT22;3168;51.684;6.954;2023-03-11T16:44:08;5.70;1.00
6270;DHT22;3168;51.684;6.954;2023-03-11T16:46:34;5.70;1.00
6270;DHT22;3168;51.684;6.954;2023-03-11T16:49:00;5.70;1.00
6270;DHT22;3168;51.684;6.954;2023-03-11T16:51:26;5.70;1.00
6270;DHT22;3168;51.684;6.954;2023-03-11T16:53:52;5.70;1.00
6270;DHT22;3168;51.684;6.954;2023-03-11T16:56:18;5.70;1.00
6270;DHT22;3168;51.684;6.954;2023-03-11T16:58:44;5.70;1.00
6270;DHT22;3168;51.684;6.954;2023-03-11T17:01:11;5.60;1.00
6270;DHT22;3168;51.684;6.954;2023-03-11T17:03:36;5.60;1.00
6270;DHT22;3168;51.684;6.954;2023-03-11T17:06:02;5.50;1.00
6270;DHT22;3168;51.684;6.954;2023-03-11T17:08:28;5.40;1.00
6270;DHT22;3168;51.684;6.954;2023-03-11T17:10:54;5.40;1.00
6270;DHT22;3168;51.684;6.954;2023-03-11T17:13:20;5.40;1.00
6270;DHT22;3168;51.684;6.954;2023-03-11T17:15:55;5.40;1.00
6270;DHT22;3168;51.684;6.954;2023-03-11T17:18:11;5.40;1.00